Time;durP1;ratioP1;P1;durP2;ratioP2;P2;SDS_P1;SDS_P2;PMS_P1;PMS_P2;Temp;Humidity;BMP_temperature;BMP_pressure;BME280_temperature;BME280_humidity;BME280_pressure;Samples;Min_cycle;Max_cycle;Signal;HPM_P1;HPM_P2
2022/05/24 00:02:23;;;;;;;9.70;7.22;;;13.40;99.90;;;;;;5035371;28;20045;-77
2022/05/24 00:04:49;;;;;;;11.80;7.13;;;13.30;99.90;;;;;;5017216;28;20057;-77
2022/05/24 00:07:16;;;;;;;11.23;7.38;;;13.20;99.90;;;;;;5033941;28;20053;-76
2022/05/24 00:09:45;;;;;;;9.48;7.15;;;13.20;99.90;;;;;;5017656;28;20088;-77
2022/05/24 00:12:12;;;;;;;12.00;6.97;;;13.10;99.90;;;;;;5035458;28;20045;-77
2022/05/24 00:17:23;;;;;;;10.75;7.68;;;13.10;99.90;;;;;;5033838;28;20550;-77
2022/05/24 00:19:50;;;;;;;11.30;7.07;;;13.00;99.90;;;;;;5016421;28;20551;-77
2022/05/24 00:22:17;;;;;;;11.02;7.97;;;13.00;99.90;;;;;;5033745;28;20095;-78
2022/05/24 00:24:45;;;;;;;11.75;7.38;;;12.90;99.90;;;;;;5016822;28;20494;-76
2022/05/24 00:27:13;;;;;;;11.57;7.50;;;12.90;99.90;;;;;;5016374;28;20099;-76
2022/05/24 00:29:40;;;;;;;12.57;7.55;;;12.90;99.90;;;;;;5015956;28;20062;-75
2022/05/24 00:32:08;;;;;;;10.88;7.28;;;12.90;99.90;;;;;;5034644;28;20159;-75
2022/05/24 00:34:34;;;;;;;10.35;6.97;;;12.90;99.90;;;;;;5016524;28;20065;-75
2022/05/24 00:37:01;;;;;;;9.80;7.13;;;13.00;99.90;;;;;;5033148;28;20095;-75
2022/05/24 00:39:28;;;;;;;11.27;7.28;;;13.00;99.90;;;;;;5034166;28;20053;-76
2022/05/24 00:42:02;;;;;;;9.50;6.75;;;13.00;99.90;;;;;;5017148;28;20103;-75
2022/05/24 00:44:31;;;;;;;10.60;6.53;;;13.00;99.90;;;;;;5016682;28;20080;-75
2022/05/24 00:47:02;;;;;;;9.82;6.20;;;13.00;99.90;;;;;;5017924;28;20060;-76
2022/05/24 00:49:30;;;;;;;;;;;13.00;99.90;;;;;;5016699;28;20108;-75
2022/05/24 00:52:02;;;;;;;9.93;6.10;;;13.00;99.90;;;;;;5034817;28;20384;-77
2022/05/24 00:54:29;;;;;;;10.32;6.07;;;12.90;99.90;;;;;;5033937;28;20045;-76
2022/05/24 00:57:02;;;;;;;11.35;5.43;;;12.80;99.90;;;;;;5033448;28;20076;-78
2022/05/24 00:59:34;;;;;;;8.38;5.07;;;12.70;99.90;;;;;;5033595;28;20094;-77
2022/05/24 01:02:02;;;;;;;8.80;5.45;;;12.70;99.90;;;;;;5016330;28;20493;-77
2022/05/24 01:04:29;;;;;;;7.18;4.68;;;12.60;99.90;;;;;;5033230;28;20054;-77
2022/05/24 01:06:56;;;;;;;8.25;5.38;;;12.50;99.90;;;;;;5016224;28;20053;-78
2022/05/24 01:09:26;;;;;;;8.32;5.18;;;12.40;99.90;;;;;;5033566;28;20133;-78
2022/05/24 01:11:59;;;;;;;7.50;5.18;;;12.30;99.90;;;;;;5015683;28;20103;-79
2022/05/24 01:14:27;;;;;;;7.90;5.15;;;12.30;99.90;;;;;;5015828;28;20092;-78
2022/05/24 01:16:55;;;;;;;7.50;5.32;;;12.20;99.90;;;;;;5016170;28;20087;-78
2022/05/24 01:19:32;;;;;;;8.68;5.70;;;12.10;99.90;;;;;;5015350;28;20555;-78
2022/05/24 01:22:08;;;;;;;9.00;5.47;;;12.10;99.90;;;;;;5033407;28;20088;-78
2022/05/24 01:24:42;;;;;;;7.68;5.93;;;12.00;99.90;;;;;;5014739;28;20103;-79
2022/05/24 01:27:11;;;;;;;9.68;6.13;;;11.90;99.90;;;;;;5015669;28;20502;-78
2022/05/24 01:29:38;;;;;;;10.23;6.03;;;11.90;99.90;;;;;;5015955;28;20065;-78
2022/05/24 01:37:35;;;;;;;13.38;6.47;;;11.70;99.90;;;;;;5033286;28;20064;-77
2022/05/24 01:40:05;;;;;;;7.82;6.10;;;11.60;99.90;;;;;;5014810;28;20053;-77
2022/05/24 01:42:34;;;;;;;11.73;6.22;;;11.60;99.90;;;;;;5032877;28;20156;-77
2022/05/24 01:45:05;;;;;;;11.48;7.05;;;11.60;99.90;;;;;;5033290;28;20111;-76
2022/05/24 01:47:34;;;;;;;14.02;6.55;;;11.60;99.90;;;;;;5014587;28;20526;-78
2022/05/24 01:50:04;;;;;;;11.00;7.35;;;11.50;99.90;;;;;;5032909;28;20049;-77
2022/05/24 01:52:35;;;;;;;11.30;7.18;;;11.50;99.90;;;;;;5014675;28;20505;-77
2022/05/24 01:55:06;;;;;;;10.85;7.15;;;11.40;99.90;;;;;;5015694;28;20514;-77
2022/05/24 01:57:37;;;;;;;8.93;7.63;;;11.40;99.90;;;;;;5015417;28;20084;-77
2022/05/24 02:00:08;;;;;;;11.45;7.32;;;11.40;99.90;;;;;;5032328;28;20107;-76
2022/05/24 02:02:35;;;;;;;11.63;7.13;;;11.40;99.90;;;;;;5014987;28;20138;-74
2022/05/24 02:05:01;;;;;;;11.60;7.60;;;11.30;99.90;;;;;;5032743;28;20092;-75
2022/05/24 02:07:28;;;;;;;10.60;7.25;;;11.40;99.90;;;;;;5031848;28;20111;-75
2022/05/24 02:09:57;;;;;;;12.07;7.68;;;11.40;99.90;;;;;;5033061;28;20062;-75
2022/05/24 02:12:29;;;;;;;9.15;7.38;;;11.40;99.90;;;;;;5016507;28;20085;-74
2022/05/24 02:15:01;;;;;;;9.40;7.75;;;11.40;99.90;;;;;;5036224;28;20049;-75
2022/05/24 02:17:31;;;;;;;13.73;7.55;;;11.50;99.90;;;;;;5018664;28;20107;-75
2022/05/24 02:20:00;;;;;;;12.65;8.55;;;11.50;99.90;;;;;;4999469;28;20056;-75
2022/05/24 02:22:29;;;;;;;12.07;7.57;;;11.80;99.90;;;;;;4998316;28;20050;-75
2022/05/24 02:24:58;;;;;;;10.75;8.23;;;11.60;99.90;;;;;;4999167;28;20054;-75
2022/05/24 02:27:26;;;;;;;11.38;8.57;;;11.70;99.90;;;;;;4999213;28;20054;-76
2022/05/24 02:29:53;;;;;;;10.85;7.85;;;11.70;99.90;;;;;;4998777;28;20089;-75
2022/05/24 02:32:22;;;;;;;12.02;7.72;;;11.70;99.90;;;;;;5000352;28;20521;-76
2022/05/24 02:34:48;;;;;;;13.65;7.30;;;11.90;99.90;;;;;;5017738;28;20104;-76
2022/05/24 02:37:15;;;;;;;9.77;7.57;;;11.90;99.90;;;;;;5036410;28;20081;-76
2022/05/24 02:42:26;;;;;;;12.23;8.35;;;11.90;99.90;;;;;;5035523;28;20095;-75
2022/05/24 02:44:53;;;;;;;14.65;7.90;;;12.00;99.90;;;;;;5018613;28;20056;-75
2022/05/24 02:47:21;;;;;;;10.65;7.80;;;12.00;99.90;;;;;;5018038;28;20041;-75
2022/05/24 02:49:48;;;;;;;11.82;8.70;;;12.10;99.90;;;;;;5017961;28;20112;-75
2022/05/24 02:52:16;;;;;;;9.95;8.13;;;12.10;99.90;;;;;;5036153;28;20053;-75
2022/05/24 02:54:43;;;;;;;12.93;8.05;;;12.10;99.90;;;;;;5018644;28;20441;-75
2022/05/24 02:57:10;;;;;;;11.70;7.93;;;12.10;99.90;;;;;;5017532;28;20524;-74
2022/05/24 02:59:37;;;;;;;11.82;7.90;;;12.20;99.90;;;;;;5018609;28;20093;-75
2022/05/24 03:02:05;;;;;;;10.63;8.35;;;12.20;99.90;;;;;;5018032;28;20084;-75
2022/05/24 03:04:34;;;;;;;13.45;9.00;;;12.20;99.90;;;;;;5035300;28;20092;-75
2022/05/24 03:09:45;;;;;;;12.90;8.75;;;12.20;99.90;;;;;;5034971;28;20170;-74
2022/05/24 03:14:57;;;;;;;12.30;9.38;;;12.30;99.90;;;;;;5035649;28;20367;-76
2022/05/24 03:17:24;;;;;;;13.98;9.88;;;12.40;99.90;;;;;;5034554;28;20073;-76
2022/05/24 03:19:53;;;;;;;14.93;10.63;;;12.50;99.90;;;;;;5035662;28;20121;-76
2022/05/24 03:22:20;;;;;;;12.55;8.95;;;12.50;99.90;;;;;;5017455;28;20151;-76
2022/05/24 03:24:46;;;;;;;15.75;10.13;;;12.50;99.90;;;;;;5034595;28;20045;-75
2022/05/24 03:27:14;;;;;;;16.65;11.50;;;12.60;99.90;;;;;;5017796;28;20401;-75
2022/05/24 03:29:42;;;;;;;15.35;11.73;;;12.60;99.90;;;;;;5017528;28;20107;-75
2022/05/24 03:32:10;;;;;;;20.42;12.20;;;12.70;99.90;;;;;;5034321;28;20124;-75
2022/05/24 03:34:38;;;;;;;22.13;13.07;;;12.70;99.90;;;;;;5017477;28;20494;-75
2022/05/24 03:37:08;;;;;;;19.15;13.50;;;12.80;99.90;;;;;;5017439;28;20049;-75
2022/05/24 03:39:35;;;;;;;20.88;14.32;;;12.80;99.90;;;;;;5016635;28;20068;-74
2022/05/24 03:42:03;;;;;;;18.80;13.35;;;12.80;99.90;;;;;;5017435;28;20046;-74
2022/05/24 03:44:30;;;;;;;20.45;13.32;;;12.90;99.90;;;;;;5034914;28;20045;-74
2022/05/24 03:46:58;;;;;;;20.50;14.00;;;12.90;99.90;;;;;;5016291;28;20084;-74
2022/05/24 03:49:25;;;;;;;18.73;14.18;;;12.90;99.90;;;;;;5017137;28;20563;-75
2022/05/24 03:51:51;;;;;;;18.70;14.00;;;12.90;99.90;;;;;;5016984;28;20401;-74
2022/05/24 03:54:20;;;;;;;22.10;13.48;;;13.00;99.90;;;;;;5034999;28;20050;-74
2022/05/24 03:59:27;;;;;;;;;;;13.10;99.90;;;;;;5016087;28;20114;-74
2022/05/24 04:01:54;;;;;;;23.30;15.75;;;13.00;99.90;;;;;;5034568;28;19975;-73
2022/05/24 04:04:21;;;;;;;25.58;15.45;;;13.00;99.90;;;;;;5016960;28;20053;-74
2022/05/24 04:06:48;;;;;;;23.15;16.48;;;13.10;99.90;;;;;;5016177;28;20119;-74
2022/05/24 04:09:15;;;;;;;24.02;16.35;;;13.10;99.90;;;;;;5017181;28;20110;-74
2022/05/24 04:11:43;;;;;;;25.40;17.67;;;13.10;99.90;;;;;;5015686;28;20080;-77
2022/05/24 04:14:10;;;;;;;24.58;16.55;;;13.20;99.90;;;;;;5032780;28;20053;-76
2022/05/24 04:16:37;;;;;;;25.20;16.65;;;13.20;99.90;;;;;;5033839;28;20486;-74
2022/05/24 04:19:04;;;;;;;25.75;16.13;;;13.20;99.90;;;;;;5017215;28;20064;-73
2022/05/24 04:21:31;;;;;;;23.13;17.45;;;13.30;99.90;;;;;;5033689;28;20049;-73
2022/05/24 04:23:58;;;;;;;21.23;14.63;;;13.30;99.90;;;;;;5016164;28;20053;-74
2022/05/24 04:26:25;;;;;;;23.85;15.85;;;13.30;99.90;;;;;;5016592;28;20061;-74
2022/05/24 04:28:53;;;;;;;20.05;16.02;;;13.40;99.90;;;;;;5015891;28;20144;-74
2022/05/24 04:31:20;;;;;;;20.58;15.40;;;13.40;99.90;;;;;;5016632;28;20049;-74
2022/05/24 04:33:47;;;;;;;23.17;15.63;;;13.40;99.90;;;;;;5016255;28;20095;-74
2022/05/24 04:36:14;;;;;;;21.40;14.23;;;13.50;99.90;;;;;;5033158;28;20057;-74
2022/05/24 04:38:41;;;;;;;21.25;14.32;;;13.50;99.90;;;;;;5034017;28;20049;-74
2022/05/24 04:43:53;;;;;;;22.10;13.88;;;13.50;99.90;;;;;;5015939;28;20489;-76
2022/05/24 04:46:20;;;;;;;19.77;12.90;;;13.60;99.90;;;;;;5016170;28;20049;-77
2022/05/24 04:48:47;;;;;;;20.67;13.07;;;13.60;99.90;;;;;;5015776;28;20084;-77
2022/05/24 04:51:13;;;;;;;19.60;13.32;;;13.60;99.90;;;;;;5034318;28;20110;-77
2022/05/24 04:53:40;;;;;;;18.02;12.55;;;13.60;99.90;;;;;;5033682;28;20061;-75
2022/05/24 04:56:07;;;;;;;17.30;11.70;;;13.70;99.90;;;;;;5015775;28;20448;-75
2022/05/24 04:58:34;;;;;;;17.52;12.48;;;13.70;99.90;;;;;;5016328;28;20092;-76
2022/05/24 05:01:02;;;;;;;17.45;11.93;;;13.70;99.90;;;;;;5015877;28;20579;-75
2022/05/24 05:03:29;;;;;;;14.85;11.82;;;13.80;99.90;;;;;;5014977;28;20095;-74
2022/05/24 05:05:56;;;;;;;15.82;11.35;;;13.80;99.90;;;;;;5015903;28;20496;-75
2022/05/24 05:08:24;;;;;;;16.42;10.60;;;13.80;99.90;;;;;;5016249;28;20092;-75
2022/05/24 05:10:51;;;;;;;18.98;11.15;;;13.90;99.90;;;;;;5032549;28;20083;-76
2022/05/24 05:13:18;;;;;;;15.30;10.57;;;13.90;99.90;;;;;;5016332;28;20083;-75
2022/05/24 05:15:45;;;;;;;17.30;10.57;;;13.90;99.90;;;;;;5015400;28;20053;-75
2022/05/24 05:18:15;;;;;;;18.00;10.82;;;14.00;99.90;;;;;;5014807;28;20490;-75
2022/05/24 05:20:42;;;;;;;15.68;10.73;;;14.00;99.90;;;;;;5015916;28;20119;-75
2022/05/24 05:23:10;;;;;;;19.08;11.02;;;14.00;99.90;;;;;;5015447;28;20045;-75
2022/05/24 05:25:38;;;;;;;15.75;10.80;;;14.10;99.90;;;;;;5014875;28;20135;-75
2022/05/24 05:28:05;;;;;;;15.82;10.38;;;14.10;99.90;;;;;;5016100;28;20136;-75
2022/05/24 05:33:17;;;;;;;15.00;10.68;;;14.20;99.90;;;;;;5033535;28;20452;-76
2022/05/24 05:35:45;;;;;;;14.70;10.00;;;14.20;99.90;;;;;;5015701;28;20053;-73
2022/05/24 05:38:12;;;;;;;19.27;11.65;;;14.30;99.90;;;;;;5014395;28;20045;-76
2022/05/24 05:40:39;;;;;;;17.98;10.70;;;14.30;99.90;;;;;;5033353;28;20064;-74
2022/05/24 05:43:06;;;;;;;15.45;9.88;;;14.30;99.90;;;;;;5015426;28;20409;-76
2022/05/24 05:45:33;;;;;;;18.23;11.18;;;14.30;99.90;;;;;;5031735;28;20493;-76
2022/05/24 05:48:00;;;;;;;16.05;10.60;;;14.20;99.90;;;;;;5015510;28;20057;-76
2022/05/24 05:50:28;;;;;;;14.90;10.70;;;14.20;99.90;;;;;;5032963;28;20085;-75
2022/05/24 05:52:55;;;;;;;19.90;10.65;;;14.10;99.90;;;;;;5032410;28;20448;-76
2022/05/24 05:55:22;;;;;;;18.08;10.13;;;14.10;99.90;;;;;;5015169;28;20060;-75
2022/05/24 05:57:49;;;;;;;14.23;10.70;;;14.00;99.90;;;;;;5015573;28;20523;-75
2022/05/24 06:00:17;;;;;;;18.38;11.45;;;14.10;99.90;;;;;;5031858;28;20046;-79
2022/05/24 06:02:46;;;;;;;14.77;10.60;;;14.00;99.90;;;;;;5015259;28;20051;-78
2022/05/24 06:05:14;;;;;;;18.10;12.30;;;13.90;99.90;;;;;;5015179;28;20301;-76
2022/05/24 06:07:42;;;;;;;20.88;11.52;;;13.80;99.90;;;;;;5031091;28;20452;-75
2022/05/24 06:10:11;;;;;;;16.67;12.07;;;13.80;99.90;;;;;;5015339;28;20045;-75
2022/05/24 06:12:38;;;;;;;17.80;11.98;;;13.70;99.90;;;;;;5014418;28;20505;-74
2022/05/24 06:15:06;;;;;;;18.33;11.05;;;13.70;99.90;;;;;;5009727;28;20053;-75
2022/05/24 06:17:33;;;;;;;17.80;11.98;;;13.70;99.90;;;;;;5008477;28;20502;-75
2022/05/24 06:20:00;;;;;;;19.30;11.63;;;13.70;99.90;;;;;;4997298;28;20108;-76
2022/05/24 06:22:27;;;;;;;20.80;11.30;;;13.70;99.90;;;;;;5001928;28;20081;-75
2022/05/24 06:24:55;;;;;;;15.88;10.25;;;13.60;99.90;;;;;;5006674;28;20058;-75
2022/05/24 06:27:22;;;;;;;15.20;9.77;;;13.60;99.90;;;;;;5003871;28;20053;-77
2022/05/24 06:29:49;;;;;;;12.30;9.43;;;13.50;99.90;;;;;;4993823;28;20090;-75
2022/05/24 06:32:16;;;;;;;13.60;9.38;;;13.50;99.90;;;;;;5017818;28;20046;-75
2022/05/24 06:34:43;;;;;;;13.07;10.18;;;13.50;99.90;;;;;;4992136;28;20050;-77
2022/05/24 06:37:10;;;;;;;14.75;10.25;;;13.50;99.90;;;;;;5023606;28;20077;-76
2022/05/24 06:39:37;;;;;;;15.50;10.40;;;13.50;99.90;;;;;;5028774;28;20045;-74
2022/05/24 06:42:05;;;;;;;17.90;11.88;;;13.60;99.90;;;;;;5004713;28;20081;-74
2022/05/24 06:44:32;;;;;;;15.07;9.73;;;13.70;99.90;;;;;;5006082;28;20049;-77
2022/05/24 06:46:59;;;;;;;16.88;9.35;;;13.80;99.90;;;;;;5011034;28;20464;-79
2022/05/24 06:49:26;;;;;;;13.80;8.98;;;13.80;99.90;;;;;;5025138;28;20143;-76
2022/05/24 06:51:53;;;;;;;11.70;8.50;;;13.80;99.90;;;;;;5007516;28;20413;-75
2022/05/24 06:54:19;;;;;;;11.30;8.40;;;13.70;99.90;;;;;;5004396;28;20045;-77
2022/05/24 06:56:46;;;;;;;13.90;9.45;;;13.80;99.90;;;;;;5010610;28;20050;-77
2022/05/24 07:04:45;;;;;;;12.90;8.85;;;14.00;99.90;;;;;;5010257;28;20155;-77
2022/05/24 07:07:12;;;;;;;14.18;8.90;;;14.20;99.90;;;;;;5012119;28;20107;-77
2022/05/24 07:09:41;;;;;;;17.02;10.25;;;14.30;99.90;;;;;;5027751;28;20132;-77
2022/05/24 07:12:09;;;;;;;15.10;9.95;;;14.30;99.90;;;;;;5026984;28;20501;-75
2022/05/24 07:14:37;;;;;;;13.35;9.82;;;14.50;99.90;;;;;;5008495;28;20092;-78
2022/05/24 07:17:04;;;;;;;20.67;11.40;;;14.70;99.90;;;;;;5028241;28;20049;-76
2022/05/24 07:19:32;;;;;;;17.77;9.70;;;14.80;99.90;;;;;;5013274;28;20474;-79
2022/05/24 07:21:59;;;;;;;17.45;9.65;;;15.00;99.90;;;;;;5011299;28;20453;-79
2022/05/24 07:24:27;;;;;;;13.63;7.80;;;15.20;99.90;;;;;;5010296;28;20536;-79
2022/05/24 07:26:54;;;;;;;12.38;7.45;;;15.30;99.90;;;;;;5015909;28;20460;-80
2022/05/24 07:29:21;;;;;;;11.68;7.10;;;15.30;99.90;;;;;;5010685;28;20052;-80
2022/05/24 07:31:49;;;;;;;11.02;5.90;;;15.30;99.90;;;;;;5028450;28;20054;-78
2022/05/24 07:34:16;;;;;;;7.80;5.63;;;15.20;99.90;;;;;;5011270;28;20489;-76
2022/05/24 07:36:43;;;;;;;11.63;4.85;;;15.10;99.90;;;;;;5006583;28;20049;-77
2022/05/24 07:39:10;;;;;;;10.43;4.88;;;15.10;99.90;;;;;;5025625;28;20088;-77
2022/05/24 07:47:09;;;;;;;6.63;4.70;;;14.70;99.90;;;;;;5025129;28;20107;-75
2022/05/24 07:49:37;;;;;;;9.40;4.75;;;14.60;99.90;;;;;;5010606;28;20384;-76
2022/05/24 07:52:05;;;;;;;7.40;4.88;;;14.50;99.90;;;;;;5027900;28;20493;-78
2022/05/24 07:54:32;;;;;;;8.77;4.43;;;14.40;99.90;;;;;;5009883;28;20378;-77
2022/05/24 07:56:59;;;;;;;7.85;4.78;;;14.40;99.90;;;;;;5015982;28;20088;-76
2022/05/24 07:59:26;;;;;;;8.20;4.72;;;14.30;99.90;;;;;;5026567;28;20057;-78
2022/05/24 08:01:53;;;;;;;9.75;5.28;;;14.20;99.90;;;;;;5012412;28;20124;-76
2022/05/24 08:04:22;;;;;;;8.35;5.80;;;14.20;99.90;;;;;;5029312;28;20476;-77
2022/05/24 08:06:49;;;;;;;9.98;5.40;;;14.10;99.90;;;;;;5009901;28;20045;-76
2022/05/24 08:09:15;;;;;;;10.52;5.45;;;13.90;99.90;;;;;;5009724;28;20077;-78
2022/05/24 08:11:42;;;;;;;9.57;5.47;;;13.90;99.90;;;;;;5008982;28;20111;-75
2022/05/24 08:14:09;;;;;;;10.13;6.07;;;13.80;99.90;;;;;;5026326;28;20486;-76
2022/05/24 08:16:36;;;;;;;10.43;6.22;;;13.80;99.90;;;;;;5014042;28;20143;-77
2022/05/24 08:19:04;;;;;;;10.48;6.45;;;13.70;99.90;;;;;;4997221;28;20054;-76
2022/05/24 08:21:33;;;;;;;15.00;7.07;;;13.70;99.90;;;;;;4995037;28;20107;-77
2022/05/24 08:24:00;;;;;;;12.35;6.85;;;13.60;99.90;;;;;;5001483;28;20108;-76
2022/05/24 08:26:27;;;;;;;12.82;6.70;;;13.60;99.90;;;;;;5016608;28;20116;-76
2022/05/24 08:28:54;;;;;;;10.98;6.43;;;13.60;99.90;;;;;;5029529;28;20930;-78
2022/05/24 08:31:21;;;;;;;13.52;6.72;;;13.60;99.90;;;;;;5002150;28;20053;-78
2022/05/24 08:33:49;;;;;;;11.50;6.93;;;13.50;99.90;;;;;;5013658;28;20137;-78
2022/05/24 08:36:15;;;;;;;10.98;6.15;;;13.50;99.90;;;;;;5013221;28;20053;-79
2022/05/24 08:38:46;;;;;;;19.90;7.15;;;13.60;99.90;;;;;;5020478;28;20134;-77
2022/05/24 08:41:21;;;;;;;11.30;7.13;;;13.60;99.90;;;;;;5011148;28;20077;-77
2022/05/24 08:49:54;;;;;;;14.05;8.10;;;13.70;99.90;;;;;;5025482;28;20041;-80
2022/05/24 08:52:23;;;;;;;18.05;8.98;;;13.80;99.90;;;;;;5004358;28;20498;-81
2022/05/24 08:54:53;;;;;;;14.43;8.35;;;13.80;99.90;;;;;;5025423;28;20042;-81
2022/05/24 08:57:26;;;;;;;15.18;9.60;;;13.80;99.90;;;;;;5016357;28;20528;-80
2022/05/24 08:59:59;;;;;;;19.60;9.98;;;14.00;99.90;;;;;;5011538;28;20582;-80
2022/05/24 09:02:26;;;;;;;13.65;9.43;;;14.00;99.90;;;;;;4999753;28;20432;-81
2022/05/24 09:04:53;;;;;;;16.02;8.48;;;14.10;99.90;;;;;;5009304;28;20080;-81
2022/05/24 09:07:31;;;;;;;15.15;8.60;;;14.10;99.90;;;;;;5012672;28;20081;-80
2022/05/24 09:10:05;;;;;;;13.10;7.97;;;14.20;99.90;;;;;;5007871;28;20417;-81
2022/05/24 09:12:45;;;;;;;11.00;8.63;;;14.20;99.90;;;;;;4998948;28;20085;-80
2022/05/24 09:15:23;;;;;;;13.18;8.48;;;14.40;99.90;;;;;;5006800;28;20203;-81
2022/05/24 09:18:08;;;;;;;13.75;9.25;;;14.80;99.90;;;;;;5022330;28;20048;-80
2022/05/24 09:20:39;;;;;;;11.98;9.00;;;14.70;99.90;;;;;;5009952;28;20129;-82
2022/05/24 09:23:13;;;;;;;9.98;7.13;;;14.60;99.90;;;;;;5011897;28;20437;-80
2022/05/24 09:25:54;;;;;;;10.23;5.85;;;14.30;99.90;;;;;;4995689;28;20062;-80
2022/05/24 09:28:46;;;;;;;9.18;3.95;;;14.00;99.90;;;;;;5012210;28;20107;-79
2022/05/24 09:31:30;;;;;;;5.60;3.72;;;13.70;99.90;;;;;;5004079;28;20053;-80
2022/05/24 09:34:00;;;;;;;5.10;2.67;;;13.50;99.90;;;;;;5028257;28;20144;-80
2022/05/24 09:36:37;;;;;;;6.82;3.95;;;13.50;99.90;;;;;;5027569;28;20049;-80
2022/05/24 09:39:21;;;;;;;6.03;3.03;;;13.60;99.90;;;;;;5029374;28;20125;-79
2022/05/24 09:41:56;;;;;;;3.28;2.28;;;13.70;99.90;;;;;;5010073;28;20053;-79
2022/05/24 09:44:23;;;;;;;5.43;1.98;;;13.90;99.90;;;;;;5008744;28;20497;-80
2022/05/24 09:46:51;;;;;;;4.20;2.00;;;14.00;99.90;;;;;;5015702;28;20088;-80
2022/05/24 09:49:27;;;;;;;3.60;1.98;;;14.10;99.90;;;;;;5023416;28;20129;-79
2022/05/24 09:51:57;;;;;;;3.13;2.10;;;14.30;99.90;;;;;;5006623;28;20053;-79
2022/05/24 09:54:26;;;;;;;3.60;1.77;;;14.30;99.90;;;;;;5025249;28;20053;-80
2022/05/24 09:57:10;;;;;;;5.32;2.75;;;14.30;99.90;;;;;;5032221;28;20284;-81
2022/05/24 09:59:39;;;;;;;3.75;2.10;;;14.30;99.90;;;;;;4998880;28;20567;-80
2022/05/24 10:02:23;;;;;;;4.30;2.58;;;14.40;99.90;;;;;;4995844;28;20213;-81
2022/05/24 10:04:50;;;;;;;4.57;2.20;;;14.60;99.90;;;;;;5022835;28;20060;-80
2022/05/24 10:07:23;;;;;;;4.07;2.30;;;14.80;99.90;;;;;;5013284;28;20042;-80
2022/05/24 10:10:00;;;;;;;5.25;2.83;;;15.00;99.90;;;;;;5002728;28;20099;-79
2022/05/24 10:12:37;;;;;;;4.97;2.60;;;15.30;99.90;;;;;;5003523;28;20042;-77
2022/05/24 10:15:12;;;;;;;6.18;2.80;;;15.80;99.90;;;;;;5015650;28;20124;-80
2022/05/24 10:17:50;;;;;;;2.88;2.00;;;16.00;99.90;;;;;;5018610;28;20116;-79
2022/05/24 10:20:23;;;;;;;7.53;2.40;;;15.90;99.90;;;;;;5003490;28;20085;-80
2022/05/24 10:22:56;;;;;;;6.00;2.70;;;15.80;99.90;;;;;;5012139;28;20081;-79
2022/05/24 10:25:27;;;;;;;3.30;2.45;;;15.70;99.90;;;;;;5028435;28;20433;-79
2022/05/24 10:28:06;;;;;;;4.00;2.28;;;15.70;99.90;;;;;;4992883;28;20088;-80
2022/05/24 10:30:44;;;;;;;5.25;2.58;;;15.90;99.90;;;;;;5004321;28;20128;-79
2022/05/24 10:39:40;;;;;;;4.70;2.83;;;16.00;99.90;;;;;;5015058;28;20053;-79
2022/05/24 10:42:16;;;;;;;6.25;3.28;;;15.50;99.90;;;;;;4966407;28;20589;-77
2022/05/24 10:44:48;;;;;;;6.20;3.25;;;14.90;99.90;;;;;;5003677;28;20045;-76
2022/05/24 10:47:24;;;;;;;3.88;2.70;;;14.60;99.90;;;;;;5016628;28;20124;-79
2022/05/24 10:49:56;;;;;;;6.05;3.10;;;14.40;99.90;;;;;;5013440;28;20056;-79
2022/05/24 10:52:32;;;;;;;5.63;2.35;;;14.50;99.90;;;;;;5003750;28;20574;-78
2022/05/24 10:55:05;;;;;;;3.95;2.78;;;14.80;99.90;;;;;;4996742;28;20050;-79
2022/05/24 10:57:34;;;;;;;4.30;2.28;;;15.60;99.90;;;;;;5016659;28;20524;-79
2022/05/24 11:00:12;;;;;;;5.63;2.40;;;16.10;99.90;;;;;;5030029;28;20108;-78
2022/05/24 11:02:44;;;;;;;4.97;2.42;;;16.80;99.90;;;;;;5017655;28;20394;-78
2022/05/24 11:05:16;;;;;;;4.75;2.67;;;17.30;99.90;;;;;;5020266;28;20153;-78
2022/05/24 11:07:43;;;;;;;5.82;2.15;;;17.70;99.90;;;;;;5021015;28;20116;-78
2022/05/24 11:10:20;;;;;;;5.82;2.60;;;17.50;99.90;;;;;;5003212;28;20054;-79
2022/05/24 11:12:49;;;;;;;4.18;2.70;;;17.30;99.90;;;;;;4996238;28;20124;-80
2022/05/24 11:15:24;;;;;;;4.15;2.60;;;17.10;99.90;;;;;;5016719;28;20090;-79
2022/05/24 11:17:51;;;;;;;4.97;3.30;;;16.90;99.90;;;;;;5004470;28;20529;-78
2022/05/24 11:20:24;;;;;;;4.72;2.60;;;16.60;99.90;;;;;;5032160;28;20123;-79
2022/05/24 11:23:01;;;;;;;7.25;3.88;;;16.50;99.90;;;;;;5011077;28;20169;-79
2022/05/24 11:25:32;;;;;;;3.35;2.20;;;16.30;99.90;;;;;;5013257;28;20046;-78
2022/05/24 11:28:17;;;;;;;5.30;2.42;;;16.10;99.90;;;;;;5020274;28;20547;-78
2022/05/24 11:30:46;;;;;;;5.53;2.47;;;15.70;99.90;;;;;;4997868;28;20339;-78
2022/05/24 11:33:16;;;;;;;4.97;2.33;;;15.10;99.90;;;;;;5004400;28;20081;-79
2022/05/24 11:35:46;;;;;;;3.20;2.08;;;14.80;99.90;;;;;;5016323;28;20053;-79
2022/05/24 11:38:16;;;;;;;3.22;2.15;;;14.90;99.90;;;;;;5009655;28;20057;-78
2022/05/24 11:41:01;;;;;;;3.25;1.85;;;15.30;99.90;;;;;;5028120;28;20100;-78
2022/05/24 11:44:04;;;;;;;4.03;2.15;;;16.30;99.90;;;;;;5002347;28;20053;-78
2022/05/24 11:46:48;;;;;;;2.28;1.42;;;17.00;99.90;;;;;;5015536;28;20119;-77
2022/05/24 11:50:05;;;;;;;2.17;1.35;;;17.60;99.90;;;;;;5014957;28;20068;-79
2022/05/24 11:53:01;;;;;;;2.65;1.50;;;18.30;99.90;;;;;;5014574;28;20485;-78
2022/05/24 11:56:15;;;;;;;5.85;1.58;;;18.80;99.90;;;;;;5005293;28;20045;-77
2022/05/24 11:58:52;;;;;;;5.75;1.38;;;18.80;99.90;;;;;;5030244;28;20444;-79
2022/05/24 12:01:49;;;;;;;3.72;1.55;;;18.30;99.90;;;;;;5004560;28;20058;-78
2022/05/24 12:10:05;;;;;;;3.97;1.33;;;17.80;99.90;;;;;;5001842;28;20501;-77
2022/05/24 12:12:33;;;;;;;2.78;1.20;;;17.30;99.90;;;;;;4995238;28;20054;-78
2022/05/24 12:15:16;;;;;;;4.15;1.13;;;17.40;99.90;;;;;;5006913;28;20045;-81
2022/05/24 12:17:46;;;;;;;4.97;1.30;;;17.20;99.90;;;;;;5015640;28;20406;-74
2022/05/24 12:20:56;;;;;;;4.72;1.23;;;17.00;99.90;;;;;;5012684;28;20050;-78
2022/05/24 12:23:41;;;;;;;2.58;1.20;;;16.60;99.90;;;;;;4997791;28;20498;-80
2022/05/24 12:26:13;;;;;;;4.88;1.30;;;16.80;99.90;;;;;;4997176;28;20096;-81
2022/05/24 12:28:50;;;;;;;2.92;1.35;;;17.30;99.90;;;;;;5015704;28;20112;-82
2022/05/24 12:31:30;;;;;;;4.03;1.40;;;17.80;99.90;;;;;;5008284;28;20494;-81
2022/05/24 12:34:01;;;;;;;5.55;1.27;;;17.70;99.90;;;;;;5015238;28;20054;-81
2022/05/24 12:36:33;;;;;;;2.22;1.10;;;17.30;99.90;;;;;;4997800;28;20050;-81
2022/05/24 12:39:10;;;;;;;4.60;1.20;;;17.20;99.90;;;;;;4997738;28;20068;-77
2022/05/24 12:41:39;;;;;;;4.05;1.20;;;16.80;99.90;;;;;;4996832;28;20489;-78
2022/05/24 12:44:13;;;;;;;2.92;1.30;;;16.70;99.90;;;;;;5015094;28;20073;-79
2022/05/24 12:46:44;;;;;;;2.88;1.30;;;17.00;99.90;;;;;;4997425;28;20584;-79
2022/05/24 12:49:16;;;;;;;;;;;17.30;99.90;;;;;;4998125;28;20061;-77
2022/05/24 12:51:45;;;;;;;2.75;1.50;;;18.00;99.90;;;;;;4997577;28;19969;-76
2022/05/24 12:54:19;;;;;;;4.22;1.45;;;18.50;99.90;;;;;;5014323;28;20121;-80
2022/05/24 12:56:58;;;;;;;4.68;1.20;;;18.50;99.90;;;;;;4996733;28;20050;-79
2022/05/24 12:59:36;;;;;;;3.85;1.40;;;18.40;99.90;;;;;;5014664;28;20049;-78
2022/05/24 13:02:26;;;;;;;3.08;1.45;;;18.10;99.90;;;;;;5013987;28;20054;-78
2022/05/24 13:04:58;;;;;;;5.70;1.67;;;17.90;99.90;;;;;;4996561;28;20053;-77
2022/05/24 13:07:37;;;;;;;5.55;1.50;;;17.70;99.90;;;;;;5014510;28;20057;-77
2022/05/24 13:10:12;;;;;;;7.15;1.55;;;17.60;99.90;;;;;;5020403;28;20054;-77
2022/05/24 13:12:42;;;;;;;5.00;1.77;;;17.50;99.90;;;;;;5029922;28;20416;-77
2022/05/24 13:15:12;;;;;;;3.20;1.40;;;17.40;99.90;;;;;;5028641;28;20042;-77
2022/05/24 13:17:42;;;;;;;3.47;1.13;;;17.40;99.90;;;;;;5010204;28;20058;-77
2022/05/24 13:20:24;;;;;;;3.65;1.10;;;17.70;99.90;;;;;;5028357;28;20111;-78
2022/05/24 13:22:54;;;;;;;3.22;1.10;;;18.40;99.90;;;;;;5022888;28;20054;-78
2022/05/24 13:25:23;;;;;;;3.15;1.17;;;19.20;99.90;;;;;;4995983;28;20478;-78
2022/05/24 13:27:54;;;;;;;3.30;1.23;;;19.60;99.90;;;;;;4996419;28;20120;-78
2022/05/24 13:33:36;;;;;;;;;;;20.00;99.90;;;;;;5014358;28;20136;-78
2022/05/24 13:36:22;;;;;;;2.63;1.10;;;19.50;99.90;;;;;;4995383;28;19968;-77
2022/05/24 13:39:05;;;;;;;2.67;0.90;;;18.70;99.90;;;;;;4996056;28;20085;-78
2022/05/24 13:41:37;;;;;;;4.25;0.90;;;18.30;99.90;;;;;;4995970;28;20054;-78
2022/05/24 13:44:29;;;;;;;3.50;1.40;;;17.80;99.90;;;;;;4995065;28;20072;-78
2022/05/24 13:46:59;;;;;;;4.97;1.10;;;17.60;99.90;;;;;;4996095;28;20058;-78
2022/05/24 13:49:43;;;;;;;2.85;1.20;;;17.40;99.90;;;;;;5013404;28;20085;-78
2022/05/24 13:52:21;;;;;;;5.90;1.27;;;17.20;99.90;;;;;;4993403;28;20052;-78
2022/05/24 13:54:49;;;;;;;4.30;1.45;;;17.00;99.90;;;;;;4995980;28;20054;-78
2022/05/24 13:57:26;;;;;;;3.47;1.00;;;17.00;99.90;;;;;;4995331;28;20216;-78